sensor_id;sensor_type;location;lat;lon;timestamp;P1;durP1;ratioP1;P2;durP2;ratioP2
54909;SDS011;63189;51.240;9.964;2023-12-14T00:01:12;9.80;;;5.47;;
54909;SDS011;63189;51.240;9.964;2023-12-14T00:03:38;9.60;;;5.55;;
54909;SDS011;63189;51.240;9.964;2023-12-14T00:06:06;9.35;;;5.20;;
54909;SDS011;63189;51.240;9.964;2023-12-14T00:08:32;9.38;;;5.13;;
54909;SDS011;63189;51.240;9.964;2023-12-14T00:11:02;6.78;;;4.47;;
54909;SDS011;63189;51.240;9.964;2023-12-14T00:13:29;7.10;;;3.90;;
54909;SDS011;63189;51.240;9.964;2023-12-14T00:15:54;9.75;;;4.07;;
54909;SDS011;63189;51.240;9.964;2023-12-14T00:18:19;6.95;;;3.70;;
54909;SDS011;63189;51.240;9.964;2023-12-14T00:20:45;5.60;;;3.47;;
54909;SDS011;63189;51.240;9.964;2023-12-14T00:23:10;5.95;;;3.60;;
54909;SDS011;63189;51.240;9.964;2023-12-14T00:25:35;5.85;;;3.50;;
54909;SDS011;63189;51.240;9.964;2023-12-14T00:28:01;7.20;;;3.70;;
54909;SDS011;63189;51.240;9.964;2023-12-14T00:30:26;6.97;;;3.90;;
54909;SDS011;63189;51.240;9.964;2023-12-14T00:32:51;5.45;;;3.53;;
54909;SDS011;63189;51.240;9.964;2023-12-14T00:35:17;5.35;;;3.60;;
54909;SDS011;63189;51.240;9.964;2023-12-14T00:37:42;6.30;;;3.72;;
54909;SDS011;63189;51.240;9.964;2023-12-14T00:40:07;8.05;;;4.53;;
54909;SDS011;63189;51.240;9.964;2023-12-14T00:42:33;7.28;;;4.00;;
54909;SDS011;63189;51.240;9.964;2023-12-14T00:44:58;7.90;;;4.18;;
54909;SDS011;63189;51.240;9.964;2023-12-14T00:47:24;5.90;;;4.30;;
54909;SDS011;63189;51.240;9.964;2023-12-14T00:49:49;5.75;;;3.88;;
54909;SDS011;63189;51.240;9.964;2023-12-14T00:52:14;6.55;;;4.50;;
54909;SDS011;63189;51.240;9.964;2023-12-14T00:54:40;5.93;;;3.78;;
54909;SDS011;63189;51.240;9.964;2023-12-14T00:57:05;5.72;;;4.47;;
54909;SDS011;63189;51.240;9.964;2023-12-14T00:59:30;7.65;;;4.68;;
54909;SDS011;63189;51.240;9.964;2023-12-14T01:01:56;6.53;;;4.60;;
54909;SDS011;63189;51.240;9.964;2023-12-14T01:04:25;5.63;;;3.90;;
54909;SDS011;63189;51.240;9.964;2023-12-14T01:06:50;6.05;;;4.05;;
54909;SDS011;63189;51.240;9.964;2023-12-14T01:09:15;6.20;;;4.10;;
54909;SDS011;63189;51.240;9.964;2023-12-14T01:11:41;6.65;;;4.30;;
54909;SDS011;63189;51.240;9.964;2023-12-14T01:14:06;8.20;;;4.88;;
54909;SDS011;63189;51.240;9.964;2023-12-14T01:16:31;8.00;;;5.22;;
54909;SDS011;63189;51.240;9.964;2023-12-14T01:18:57;8.18;;;5.05;;
54909;SDS011;63189;51.240;9.964;2023-12-14T01:21:22;9.18;;;5.85;;
54909;SDS011;63189;51.240;9.964;2023-12-14T01:23:48;7.75;;;5.40;;
54909;SDS011;63189;51.240;9.964;2023-12-14T01:26:14;9.23;;;5.60;;
54909;SDS011;63189;51.240;9.964;2023-12-14T01:28:39;8.85;;;5.63;;
54909;SDS011;63189;51.240;9.964;2023-12-14T01:31:05;9.48;;;6.00;;
54909;SDS011;63189;51.240;9.964;2023-12-14T01:33:30;7.68;;;5.47;;
54909;SDS011;63189;51.240;9.964;2023-12-14T01:35:55;8.68;;;6.00;;
54909;SDS011;63189;51.240;9.964;2023-12-14T01:38:21;10.00;;;6.18;;
54909;SDS011;63189;51.240;9.964;2023-12-14T01:40:46;9.52;;;6.15;;
54909;SDS011;63189;51.240;9.964;2023-12-14T01:43:11;8.98;;;6.05;;
54909;SDS011;63189;51.240;9.964;2023-12-14T01:45:37;11.38;;;6.88;;
54909;SDS011;63189;51.240;9.964;2023-12-14T01:48:03;10.20;;;6.35;;
54909;SDS011;63189;51.240;9.964;2023-12-14T01:50:29;9.82;;;6.00;;
54909;SDS011;63189;51.240;9.964;2023-12-14T01:52:54;12.48;;;7.60;;
54909;SDS011;63189;51.240;9.964;2023-12-14T01:55:20;9.90;;;5.90;;
54909;SDS011;63189;51.240;9.964;2023-12-14T01:57:45;9.57;;;6.35;;
54909;SDS011;63189;51.240;9.964;2023-12-14T02:00:21;10.40;;;7.38;;
54909;SDS011;63189;51.240;9.964;2023-12-14T02:02:59;10.65;;;7.45;;
54909;SDS011;63189;51.240;9.964;2023-12-14T02:05:24;12.80;;;8.30;;
54909;SDS011;63189;51.240;9.964;2023-12-14T02:07:49;14.05;;;8.38;;
54909;SDS011;63189;51.240;9.964;2023-12-14T02:10:15;13.95;;;9.15;;
54909;SDS011;63189;51.240;9.964;2023-12-14T02:12:40;16.48;;;10.02;;
54909;SDS011;63189;51.240;9.964;2023-12-14T02:15:06;15.45;;;10.55;;
54909;SDS011;63189;51.240;9.964;2023-12-14T02:17:31;19.17;;;10.93;;
54909;SDS011;63189;51.240;9.964;2023-12-14T02:19:57;17.15;;;9.27;;
54909;SDS011;63189;51.240;9.964;2023-12-14T02:22:22;17.60;;;10.30;;
54909;SDS011;63189;51.240;9.964;2023-12-14T02:24:47;17.63;;;10.02;;
54909;SDS011;63189;51.240;9.964;2023-12-14T02:27:13;18.33;;;10.63;;
54909;SDS011;63189;51.240;9.964;2023-12-14T02:29:38;31.15;;;11.43;;
54909;SDS011;63189;51.240;9.964;2023-12-14T02:32:05;26.90;;;10.90;;
54909;SDS011;63189;51.240;9.964;2023-12-14T02:34:30;33.22;;;11.20;;
54909;SDS011;63189;51.240;9.964;2023-12-14T02:36:56;19.20;;;9.52;;
54909;SDS011;63189;51.240;9.964;2023-12-14T02:39:21;22.77;;;11.20;;
54909;SDS011;63189;51.240;9.964;2023-12-14T02:41:46;42.70;;;12.48;;
54909;SDS011;63189;51.240;9.964;2023-12-14T02:44:12;46.70;;;12.38;;
54909;SDS011;63189;51.240;9.964;2023-12-14T02:46:37;39.90;;;11.32;;
54909;SDS011;63189;51.240;9.964;2023-12-14T02:49:03;25.60;;;10.10;;
54909;SDS011;63189;51.240;9.964;2023-12-14T02:51:28;20.85;;;10.40;;
54909;SDS011;63189;51.240;9.964;2023-12-14T02:53:53;33.42;;;11.20;;
54909;SDS011;63189;51.240;9.964;2023-12-14T02:56:22;49.97;;;13.27;;
54909;SDS011;63189;51.240;9.964;2023-12-14T02:58:47;21.63;;;9.88;;
54909;SDS011;63189;51.240;9.964;2023-12-14T03:01:18;120.18;;;18.60;;
54909;SDS011;63189;51.240;9.964;2023-12-14T03:03:44;131.00;;;19.63;;
54909;SDS011;63189;51.240;9.964;2023-12-14T03:06:09;73.55;;;15.27;;
54909;SDS011;63189;51.240;9.964;2023-12-14T03:08:35;65.97;;;16.35;;
54909;SDS011;63189;51.240;9.964;2023-12-14T03:11:00;78.90;;;16.45;;
54909;SDS011;63189;51.240;9.964;2023-12-14T03:13:25;54.10;;;13.95;;
54909;SDS011;63189;51.240;9.964;2023-12-14T03:15:51;65.03;;;15.35;;
54909;SDS011;63189;51.240;9.964;2023-12-14T03:18:16;207.90;;;23.23;;
54909;SDS011;63189;51.240;9.964;2023-12-14T03:20:41;106.93;;;17.88;;
54909;SDS011;63189;51.240;9.964;2023-12-14T03:23:07;186.18;;;21.58;;
54909;SDS011;63189;51.240;9.964;2023-12-14T03:25:32;32.53;;;10.85;;
54909;SDS011;63189;51.240;9.964;2023-12-14T03:27:57;58.97;;;12.95;;
54909;SDS011;63189;51.240;9.964;2023-12-14T03:30:23;28.48;;;11.20;;
54909;SDS011;63189;51.240;9.964;2023-12-14T03:32:48;38.00;;;10.77;;
54909;SDS011;63189;51.240;9.964;2023-12-14T03:35:13;19.52;;;9.80;;
54909;SDS011;63189;51.240;9.964;2023-12-14T03:37:39;19.15;;;10.52;;
54909;SDS011;63189;51.240;9.964;2023-12-14T03:40:04;13.57;;;8.50;;
54909;SDS011;63189;51.240;9.964;2023-12-14T03:42:30;15.55;;;8.90;;
54909;SDS011;63189;51.240;9.964;2023-12-14T03:44:56;14.50;;;8.32;;
54909;SDS011;63189;51.240;9.964;2023-12-14T03:47:21;15.07;;;9.30;;
54909;SDS011;63189;51.240;9.964;2023-12-14T03:49:46;17.73;;;8.68;;
54909;SDS011;63189;51.240;9.964;2023-12-14T03:52:12;15.57;;;8.52;;
54909;SDS011;63189;51.240;9.964;2023-12-14T03:54:37;14.80;;;9.15;;
54909;SDS011;63189;51.240;9.964;2023-12-14T03:57:03;11.63;;;7.88;;
54909;SDS011;63189;51.240;9.964;2023-12-14T03:59:28;11.15;;;7.50;;
54909;SDS011;63189;51.240;9.964;2023-12-14T04:01:54;8.95;;;6.60;;
54909;SDS011;63189;51.240;9.964;2023-12-14T04:04:19;7.35;;;5.28;;
54909;SDS011;63189;51.240;9.964;2023-12-14T04:06:44;8.88;;;6.03;;
54909;SDS011;63189;51.240;9.964;2023-12-14T04:09:10;6.60;;;4.95;;
54909;SDS011;63189;51.240;9.964;2023-12-14T04:11:36;9.48;;;6.30;;
54909;SDS011;63189;51.240;9.964;2023-12-14T04:14:02;8.77;;;5.70;;
54909;SDS011;63189;51.240;9.964;2023-12-14T04:16:27;9.35;;;5.85;;
54909;SDS011;63189;51.240;9.964;2023-12-14T04:18:52;8.80;;;5.43;;
54909;SDS011;63189;51.240;9.964;2023-12-14T04:21:18;7.97;;;5.97;;
54909;SDS011;63189;51.240;9.964;2023-12-14T04:23:43;8.50;;;6.80;;
54909;SDS011;63189;51.240;9.964;2023-12-14T04:26:10;9.25;;;6.60;;
54909;SDS011;63189;51.240;9.964;2023-12-14T04:28:36;10.98;;;7.28;;
54909;SDS011;63189;51.240;9.964;2023-12-14T04:31:01;11.30;;;7.43;;
54909;SDS011;63189;51.240;9.964;2023-12-14T04:33:27;9.05;;;6.22;;
54909;SDS011;63189;51.240;9.964;2023-12-14T04:35:52;8.25;;;6.22;;
54909;SDS011;63189;51.240;9.964;2023-12-14T04:38:18;10.38;;;6.97;;
54909;SDS011;63189;51.240;9.964;2023-12-14T04:40:43;9.40;;;6.25;;
54909;SDS011;63189;51.240;9.964;2023-12-14T04:43:08;8.82;;;6.38;;
54909;SDS011;63189;51.240;9.964;2023-12-14T04:45:34;8.65;;;5.55;;
54909;SDS011;63189;51.240;9.964;2023-12-14T04:48:00;17.20;;;7.32;;
54909;SDS011;63189;51.240;9.964;2023-12-14T04:50:26;9.23;;;6.15;;
54909;SDS011;63189;51.240;9.964;2023-12-14T04:52:51;9.63;;;6.63;;
54909;SDS011;63189;51.240;9.964;2023-12-14T04:55:16;11.80;;;7.57;;
54909;SDS011;63189;51.240;9.964;2023-12-14T04:57:42;10.05;;;7.55;;
54909;SDS011;63189;51.240;9.964;2023-12-14T05:00:08;10.25;;;7.63;;
54909;SDS011;63189;51.240;9.964;2023-12-14T05:02:34;11.27;;;6.88;;
54909;SDS011;63189;51.240;9.964;2023-12-14T05:04:59;9.75;;;7.03;;
54909;SDS011;63189;51.240;9.964;2023-12-14T05:07:24;10.70;;;7.38;;
54909;SDS011;63189;51.240;9.964;2023-12-14T05:09:50;9.75;;;7.00;;
54909;SDS011;63189;51.240;9.964;2023-12-14T05:12:15;9.93;;;7.25;;
54909;SDS011;63189;51.240;9.964;2023-12-14T05:14:40;8.82;;;6.90;;
54909;SDS011;63189;51.240;9.964;2023-12-14T05:17:06;9.10;;;6.55;;
54909;SDS011;63189;51.240;9.964;2023-12-14T05:19:34;8.82;;;6.50;;
54909;SDS011;63189;51.240;9.964;2023-12-14T05:21:59;10.77;;;6.85;;
54909;SDS011;63189;51.240;9.964;2023-12-14T05:24:25;7.85;;;5.72;;
54909;SDS011;63189;51.240;9.964;2023-12-14T05:26:50;10.00;;;6.63;;
54909;SDS011;63189;51.240;9.964;2023-12-14T05:29:16;8.63;;;6.20;;
54909;SDS011;63189;51.240;9.964;2023-12-14T05:31:42;6.75;;;5.38;;
54909;SDS011;63189;51.240;9.964;2023-12-14T05:34:07;7.18;;;5.53;;
54909;SDS011;63189;51.240;9.964;2023-12-14T05:36:33;8.13;;;5.80;;
54909;SDS011;63189;51.240;9.964;2023-12-14T05:38:58;7.20;;;5.60;;
54909;SDS011;63189;51.240;9.964;2023-12-14T05:41:23;8.88;;;6.13;;
54909;SDS011;63189;51.240;9.964;2023-12-14T05:43:49;7.97;;;5.68;;
54909;SDS011;63189;51.240;9.964;2023-12-14T05:46:23;6.32;;;4.93;;
54909;SDS011;63189;51.240;9.964;2023-12-14T05:48:49;5.47;;;4.30;;
54909;SDS011;63189;51.240;9.964;2023-12-14T05:51:28;5.50;;;4.30;;
54909;SDS011;63189;51.240;9.964;2023-12-14T05:53:57;6.38;;;4.13;;
54909;SDS011;63189;51.240;9.964;2023-12-14T05:56:23;6.18;;;4.47;;
54909;SDS011;63189;51.240;9.964;2023-12-14T05:58:49;5.10;;;3.53;;
54909;SDS011;63189;51.240;9.964;2023-12-14T06:01:16;7.00;;;4.30;;
54909;SDS011;63189;51.240;9.964;2023-12-14T06:03:42;5.78;;;4.00;;
54909;SDS011;63189;51.240;9.964;2023-12-14T06:06:08;4.65;;;3.60;;
54909;SDS011;63189;51.240;9.964;2023-12-14T06:08:33;7.07;;;3.92;;
54909;SDS011;63189;51.240;9.964;2023-12-14T06:10:59;5.50;;;3.78;;
54909;SDS011;63189;51.240;9.964;2023-12-14T06:13:24;5.43;;;3.83;;
54909;SDS011;63189;51.240;9.964;2023-12-14T06:15:49;4.90;;;3.25;;
54909;SDS011;63189;51.240;9.964;2023-12-14T06:18:15;4.22;;;3.33;;
54909;SDS011;63189;51.240;9.964;2023-12-14T06:20:40;4.55;;;2.88;;
54909;SDS011;63189;51.240;9.964;2023-12-14T06:23:06;4.32;;;2.55;;
54909;SDS011;63189;51.240;9.964;2023-12-14T06:25:31;4.70;;;2.60;;
54909;SDS011;63189;51.240;9.964;2023-12-14T06:27:58;3.38;;;2.30;;
54909;SDS011;63189;51.240;9.964;2023-12-14T06:30:23;3.30;;;2.50;;
54909;SDS011;63189;51.240;9.964;2023-12-14T06:32:49;3.47;;;2.38;;
54909;SDS011;63189;51.240;9.964;2023-12-14T06:35:14;3.35;;;2.65;;
54909;SDS011;63189;51.240;9.964;2023-12-14T06:37:40;2.15;;;1.80;;
54909;SDS011;63189;51.240;9.964;2023-12-14T06:40:08;4.00;;;2.20;;
54909;SDS011;63189;51.240;9.964;2023-12-14T06:42:34;2.55;;;2.00;;
54909;SDS011;63189;51.240;9.964;2023-12-14T06:45:01;3.28;;;2.38;;
54909;SDS011;63189;51.240;9.964;2023-12-14T06:47:27;2.50;;;2.00;;
54909;SDS011;63189;51.240;9.964;2023-12-14T06:49:53;2.67;;;2.00;;
54909;SDS011;63189;51.240;9.964;2023-12-14T06:52:22;3.22;;;2.63;;
54909;SDS011;63189;51.240;9.964;2023-12-14T06:54:48;3.40;;;2.83;;
54909;SDS011;63189;51.240;9.964;2023-12-14T06:57:13;3.85;;;2.75;;
54909;SDS011;63189;51.240;9.964;2023-12-14T06:59:39;3.33;;;2.55;;
54909;SDS011;63189;51.240;9.964;2023-12-14T07:02:04;3.55;;;2.88;;
54909;SDS011;63189;51.240;9.964;2023-12-14T07:04:30;3.45;;;2.85;;
54909;SDS011;63189;51.240;9.964;2023-12-14T07:06:56;4.05;;;3.30;;
54909;SDS011;63189;51.240;9.964;2023-12-14T07:09:21;3.40;;;2.78;;
54909;SDS011;63189;51.240;9.964;2023-12-14T07:11:47;3.95;;;3.20;;
54909;SDS011;63189;51.240;9.964;2023-12-14T07:14:12;5.45;;;3.28;;
54909;SDS011;63189;51.240;9.964;2023-12-14T07:16:39;6.15;;;4.40;;
54909;SDS011;63189;51.240;9.964;2023-12-14T07:19:05;6.60;;;4.60;;
54909;SDS011;63189;51.240;9.964;2023-12-14T07:21:31;6.65;;;4.40;;
54909;SDS011;63189;51.240;9.964;2023-12-14T07:23:56;5.63;;;3.47;;
54909;SDS011;63189;51.240;9.964;2023-12-14T07:26:21;6.00;;;4.45;;
54909;SDS011;63189;51.240;9.964;2023-12-14T07:28:47;5.45;;;4.47;;
54909;SDS011;63189;51.240;9.964;2023-12-14T07:31:12;5.63;;;4.30;;
54909;SDS011;63189;51.240;9.964;2023-12-14T07:33:38;6.05;;;4.60;;
54909;SDS011;63189;51.240;9.964;2023-12-14T07:36:03;5.88;;;4.53;;
54909;SDS011;63189;51.240;9.964;2023-12-14T07:38:30;5.53;;;4.40;;
54909;SDS011;63189;51.240;9.964;2023-12-14T07:40:56;4.80;;;3.83;;
54909;SDS011;63189;51.240;9.964;2023-12-14T07:43:21;6.35;;;4.70;;
54909;SDS011;63189;51.240;9.964;2023-12-14T07:45:48;7.35;;;5.18;;
54909;SDS011;63189;51.240;9.964;2023-12-14T07:48:13;6.85;;;5.32;;
54909;SDS011;63189;51.240;9.964;2023-12-14T07:50:39;6.38;;;4.70;;
54909;SDS011;63189;51.240;9.964;2023-12-14T07:53:04;6.28;;;4.43;;
54909;SDS011;63189;51.240;9.964;2023-12-14T07:55:30;5.78;;;4.47;;
54909;SDS011;63189;51.240;9.964;2023-12-14T07:57:55;6.10;;;4.25;;
54909;SDS011;63189;51.240;9.964;2023-12-14T08:00:21;5.70;;;4.57;;
54909;SDS011;63189;51.240;9.964;2023-12-14T08:02:46;6.22;;;4.90;;
54909;SDS011;63189;51.240;9.964;2023-12-14T08:05:12;5.95;;;4.70;;
54909;SDS011;63189;51.240;9.964;2023-12-14T08:07:37;7.72;;;5.50;;
54909;SDS011;63189;51.240;9.964;2023-12-14T08:10:03;7.47;;;5.13;;
54909;SDS011;63189;51.240;9.964;2023-12-14T08:12:28;7.78;;;5.45;;
54909;SDS011;63189;51.240;9.964;2023-12-14T08:14:54;7.90;;;5.95;;
54909;SDS011;63189;51.240;9.964;2023-12-14T08:17:19;7.75;;;5.45;;
54909;SDS011;63189;51.240;9.964;2023-12-14T08:19:45;8.35;;;5.97;;
54909;SDS011;63189;51.240;9.964;2023-12-14T08:22:11;8.05;;;5.43;;
54909;SDS011;63189;51.240;9.964;2023-12-14T08:24:40;8.25;;;6.03;;
54909;SDS011;63189;51.240;9.964;2023-12-14T08:27:06;12.18;;;8.02;;
54909;SDS011;63189;51.240;9.964;2023-12-14T08:29:32;13.50;;;8.35;;
54909;SDS011;63189;51.240;9.964;2023-12-14T08:31:57;12.45;;;7.53;;
54909;SDS011;63189;51.240;9.964;2023-12-14T08:34:24;16.23;;;8.55;;
54909;SDS011;63189;51.240;9.964;2023-12-14T08:36:50;13.98;;;8.48;;
54909;SDS011;63189;51.240;9.964;2023-12-14T08:39:16;13.40;;;8.50;;
54909;SDS011;63189;51.240;9.964;2023-12-14T08:41:42;12.50;;;7.93;;
54909;SDS011;63189;51.240;9.964;2023-12-14T08:44:07;17.20;;;9.77;;
54909;SDS011;63189;51.240;9.964;2023-12-14T08:46:43;12.52;;;7.95;;
54909;SDS011;63189;51.240;9.964;2023-12-14T08:49:10;15.60;;;7.50;;
54909;SDS011;63189;51.240;9.964;2023-12-14T08:51:36;19.08;;;10.98;;
54909;SDS011;63189;51.240;9.964;2023-12-14T08:54:03;20.17;;;10.40;;
54909;SDS011;63189;51.240;9.964;2023-12-14T08:56:29;14.18;;;8.95;;
54909;SDS011;63189;51.240;9.964;2023-12-14T08:58:55;17.42;;;8.55;;
54909;SDS011;63189;51.240;9.964;2023-12-14T09:01:20;12.13;;;7.50;;
54909;SDS011;63189;51.240;9.964;2023-12-14T09:03:46;13.35;;;8.23;;
54909;SDS011;63189;51.240;9.964;2023-12-14T09:06:12;11.63;;;7.40;;
54909;SDS011;63189;51.240;9.964;2023-12-14T09:08:37;10.63;;;6.63;;
54909;SDS011;63189;51.240;9.964;2023-12-14T09:11:02;12.93;;;8.05;;
54909;SDS011;63189;51.240;9.964;2023-12-14T09:13:29;13.10;;;8.80;;
54909;SDS011;63189;51.240;9.964;2023-12-14T09:15:54;11.00;;;7.15;;
54909;SDS011;63189;51.240;9.964;2023-12-14T09:18:20;11.05;;;7.53;;
54909;SDS011;63189;51.240;9.964;2023-12-14T09:20:47;14.43;;;7.97;;
54909;SDS011;63189;51.240;9.964;2023-12-14T09:23:14;12.65;;;7.85;;
54909;SDS011;63189;51.240;9.964;2023-12-14T09:25:40;11.50;;;7.55;;
54909;SDS011;63189;51.240;9.964;2023-12-14T09:28:06;12.68;;;7.85;;
54909;SDS011;63189;51.240;9.964;2023-12-14T09:30:31;11.32;;;8.00;;
54909;SDS011;63189;51.240;9.964;2023-12-14T09:32:56;11.93;;;8.10;;
54909;SDS011;63189;51.240;9.964;2023-12-14T09:35:22;10.57;;;7.20;;
54909;SDS011;63189;51.240;9.964;2023-12-14T09:37:47;10.38;;;7.28;;
54909;SDS011;63189;51.240;9.964;2023-12-14T09:40:13;10.05;;;6.80;;
54909;SDS011;63189;51.240;9.964;2023-12-14T09:42:39;9.25;;;6.63;;
54909;SDS011;63189;51.240;9.964;2023-12-14T09:45:08;9.20;;;6.25;;
54909;SDS011;63189;51.240;9.964;2023-12-14T09:47:35;8.63;;;6.30;;
54909;SDS011;63189;51.240;9.964;2023-12-14T09:50:02;8.40;;;5.93;;
54909;SDS011;63189;51.240;9.964;2023-12-14T09:52:28;7.18;;;5.50;;
54909;SDS011;63189;51.240;9.964;2023-12-14T09:54:54;8.27;;;5.97;;
54909;SDS011;63189;51.240;9.964;2023-12-14T09:57:19;8.70;;;6.05;;
54909;SDS011;63189;51.240;9.964;2023-12-14T09:59:51;8.27;;;5.75;;
54909;SDS011;63189;51.240;9.964;2023-12-14T10:02:17;12.37;;;6.83;;
54909;SDS011;63189;51.240;9.964;2023-12-14T10:04:43;7.68;;;5.57;;
54909;SDS011;63189;51.240;9.964;2023-12-14T10:07:09;7.88;;;5.22;;
54909;SDS011;63189;51.240;9.964;2023-12-14T10:09:35;7.65;;;5.47;;
54909;SDS011;63189;51.240;9.964;2023-12-14T10:12:05;8.57;;;5.63;;
54909;SDS011;63189;51.240;9.964;2023-12-14T10:14:33;6.90;;;5.13;;
54909;SDS011;63189;51.240;9.964;2023-12-14T10:16:59;8.23;;;5.93;;
54909;SDS011;63189;51.240;9.964;2023-12-14T10:19:41;7.35;;;5.45;;
54909;SDS011;63189;51.240;9.964;2023-12-14T10:22:07;7.15;;;5.05;;
54909;SDS011;63189;51.240;9.964;2023-12-14T10:24:33;7.28;;;5.05;;
54909;SDS011;63189;51.240;9.964;2023-12-14T10:26:59;6.65;;;4.22;;
54909;SDS011;63189;51.240;9.964;2023-12-14T10:29:29;5.45;;;4.10;;
54909;SDS011;63189;51.240;9.964;2023-12-14T10:31:59;6.38;;;4.10;;
54909;SDS011;63189;51.240;9.964;2023-12-14T10:34:24;5.70;;;3.90;;
54909;SDS011;63189;51.240;9.964;2023-12-14T10:36:50;6.07;;;4.38;;
54909;SDS011;63189;51.240;9.964;2023-12-14T10:39:17;7.93;;;4.70;;
54909;SDS011;63189;51.240;9.964;2023-12-14T10:41:48;6.97;;;4.35;;
54909;SDS011;63189;51.240;9.964;2023-12-14T10:44:17;5.47;;;3.53;;
54909;SDS011;63189;51.240;9.964;2023-12-14T10:46:46;7.13;;;4.15;;
54909;SDS011;63189;51.240;9.964;2023-12-14T10:49:13;6.50;;;4.53;;
54909;SDS011;63189;51.240;9.964;2023-12-14T10:51:40;5.30;;;4.03;;
54909;SDS011;63189;51.240;9.964;2023-12-14T10:54:08;7.70;;;4.43;;
54909;SDS011;63189;51.240;9.964;2023-12-14T10:56:34;7.70;;;4.80;;
54909;SDS011;63189;51.240;9.964;2023-12-14T10:58:59;9.27;;;5.05;;
54909;SDS011;63189;51.240;9.964;2023-12-14T11:01:26;6.22;;;3.70;;
54909;SDS011;63189;51.240;9.964;2023-12-14T11:03:55;6.63;;;4.25;;
54909;SDS011;63189;51.240;9.964;2023-12-14T11:08:51;6.53;;;4.53;;
54909;SDS011;63189;51.240;9.964;2023-12-14T11:11:17;6.28;;;4.38;;
54909;SDS011;63189;51.240;9.964;2023-12-14T11:13:46;7.80;;;5.30;;
54909;SDS011;63189;51.240;9.964;2023-12-14T11:16:15;9.88;;;6.32;;
54909;SDS011;63189;51.240;9.964;2023-12-14T11:18:40;6.80;;;4.60;;
54909;SDS011;63189;51.240;9.964;2023-12-14T11:21:06;5.20;;;3.97;;
54909;SDS011;63189;51.240;9.964;2023-12-14T11:23:32;5.90;;;4.03;;
54909;SDS011;63189;51.240;9.964;2023-12-14T11:26:02;5.10;;;4.53;;
54909;SDS011;63189;51.240;9.964;2023-12-14T11:28:32;7.97;;;4.53;;
54909;SDS011;63189;51.240;9.964;2023-12-14T11:31:00;6.80;;;5.47;;
54909;SDS011;63189;51.240;9.964;2023-12-14T11:33:27;7.90;;;6.22;;
54909;SDS011;63189;51.240;9.964;2023-12-14T11:35:53;7.95;;;6.13;;
54909;SDS011;63189;51.240;9.964;2023-12-14T11:38:20;10.45;;;8.07;;
54909;SDS011;63189;51.240;9.964;2023-12-14T11:40:48;11.35;;;8.70;;
54909;SDS011;63189;51.240;9.964;2023-12-14T11:43:14;11.52;;;8.50;;
54909;SDS011;63189;51.240;9.964;2023-12-14T11:45:40;13.98;;;9.25;;
54909;SDS011;63189;51.240;9.964;2023-12-14T11:48:09;12.85;;;9.38;;
54909;SDS011;63189;51.240;9.964;2023-12-14T11:50:37;14.73;;;10.52;;
54909;SDS011;63189;51.240;9.964;2023-12-14T11:53:03;13.57;;;8.88;;
54909;SDS011;63189;51.240;9.964;2023-12-14T11:55:34;10.88;;;8.05;;
54909;SDS011;63189;51.240;9.964;2023-12-14T11:58:00;12.55;;;9.02;;
54909;SDS011;63189;51.240;9.964;2023-12-14T12:00:26;14.02;;;9.38;;
54909;SDS011;63189;51.240;9.964;2023-12-14T12:03:12;13.32;;;9.27;;
54909;SDS011;63189;51.240;9.964;2023-12-14T12:05:39;15.90;;;10.23;;
54909;SDS011;63189;51.240;9.964;2023-12-14T12:08:08;15.90;;;10.00;;
54909;SDS011;63189;51.240;9.964;2023-12-14T12:10:35;11.57;;;8.20;;
54909;SDS011;63189;51.240;9.964;2023-12-14T12:13:02;12.13;;;8.18;;
54909;SDS011;63189;51.240;9.964;2023-12-14T12:15:31;13.25;;;8.85;;
54909;SDS011;63189;51.240;9.964;2023-12-14T12:17:57;14.15;;;8.73;;
54909;SDS011;63189;51.240;9.964;2023-12-14T12:20:22;14.75;;;9.80;;
54909;SDS011;63189;51.240;9.964;2023-12-14T12:22:48;14.25;;;8.77;;
54909;SDS011;63189;51.240;9.964;2023-12-14T12:25:13;11.38;;;8.10;;
54909;SDS011;63189;51.240;9.964;2023-12-14T12:27:41;11.40;;;6.93;;
54909;SDS011;63189;51.240;9.964;2023-12-14T12:30:07;14.13;;;8.30;;
54909;SDS011;63189;51.240;9.964;2023-12-14T12:32:34;7.82;;;5.65;;
54909;SDS011;63189;51.240;9.964;2023-12-14T12:34:59;6.32;;;5.05;;
54909;SDS011;63189;51.240;9.964;2023-12-14T12:37:24;7.07;;;5.22;;
54909;SDS011;63189;51.240;9.964;2023-12-14T12:39:50;7.72;;;5.32;;
54909;SDS011;63189;51.240;9.964;2023-12-14T12:42:16;5.95;;;4.60;;
54909;SDS011;63189;51.240;9.964;2023-12-14T12:44:41;5.65;;;4.57;;
54909;SDS011;63189;51.240;9.964;2023-12-14T12:47:08;6.22;;;5.03;;
54909;SDS011;63189;51.240;9.964;2023-12-14T12:49:33;4.78;;;3.83;;
54909;SDS011;63189;51.240;9.964;2023-12-14T12:51:58;4.93;;;3.78;;
54909;SDS011;63189;51.240;9.964;2023-12-14T12:54:24;4.30;;;3.65;;
54909;SDS011;63189;51.240;9.964;2023-12-14T12:56:49;4.53;;;3.90;;
54909;SDS011;63189;51.240;9.964;2023-12-14T12:59:14;5.75;;;4.13;;
54909;SDS011;63189;51.240;9.964;2023-12-14T13:01:40;11.50;;;4.30;;
54909;SDS011;63189;51.240;9.964;2023-12-14T13:04:05;5.40;;;4.40;;
54909;SDS011;63189;51.240;9.964;2023-12-14T13:06:43;5.28;;;4.43;;
54909;SDS011;63189;51.240;9.964;2023-12-14T13:09:08;8.13;;;4.60;;
54909;SDS011;63189;51.240;9.964;2023-12-14T13:11:35;4.95;;;4.10;;
54909;SDS011;63189;51.240;9.964;2023-12-14T13:14:00;6.03;;;4.70;;
54909;SDS011;63189;51.240;9.964;2023-12-14T13:16:29;6.32;;;4.90;;
54909;SDS011;63189;51.240;9.964;2023-12-14T13:18:55;6.32;;;5.38;;
54909;SDS011;63189;51.240;9.964;2023-12-14T13:21:20;7.72;;;5.75;;
54909;SDS011;63189;51.240;9.964;2023-12-14T13:23:47;8.70;;;5.40;;
54909;SDS011;63189;51.240;9.964;2023-12-14T13:26:12;7.85;;;6.32;;
54909;SDS011;63189;51.240;9.964;2023-12-14T13:28:37;7.55;;;5.82;;
54909;SDS011;63189;51.240;9.964;2023-12-14T13:31:03;13.52;;;8.02;;
54909;SDS011;63189;51.240;9.964;2023-12-14T13:33:29;8.93;;;5.68;;
54909;SDS011;63189;51.240;9.964;2023-12-14T13:35:54;6.93;;;5.03;;
54909;SDS011;63189;51.240;9.964;2023-12-14T13:38:20;7.43;;;5.18;;
54909;SDS011;63189;51.240;9.964;2023-12-14T13:40:45;7.38;;;5.40;;
54909;SDS011;63189;51.240;9.964;2023-12-14T13:43:11;5.35;;;4.65;;
54909;SDS011;63189;51.240;9.964;2023-12-14T13:45:37;6.18;;;4.80;;
54909;SDS011;63189;51.240;9.964;2023-12-14T13:48:04;7.95;;;4.90;;
54909;SDS011;63189;51.240;9.964;2023-12-14T13:50:29;5.43;;;4.35;;
54909;SDS011;63189;51.240;9.964;2023-12-14T13:52:55;8.65;;;6.47;;
54909;SDS011;63189;51.240;9.964;2023-12-14T13:55:21;10.60;;;7.60;;
54909;SDS011;63189;51.240;9.964;2023-12-14T13:57:47;8.88;;;6.15;;
54909;SDS011;63189;51.240;9.964;2023-12-14T14:00:13;7.68;;;5.60;;
54909;SDS011;63189;51.240;9.964;2023-12-14T14:02:40;6.47;;;4.88;;
54909;SDS011;63189;51.240;9.964;2023-12-14T14:05:05;6.40;;;4.97;;
54909;SDS011;63189;51.240;9.964;2023-12-14T14:07:31;8.13;;;5.32;;
54909;SDS011;63189;51.240;9.964;2023-12-14T14:09:56;6.72;;;5.53;;
54909;SDS011;63189;51.240;9.964;2023-12-14T14:12:22;7.88;;;6.00;;
54909;SDS011;63189;51.240;9.964;2023-12-14T14:14:47;8.73;;;6.65;;
54909;SDS011;63189;51.240;9.964;2023-12-14T14:17:12;12.13;;;8.43;;
54909;SDS011;63189;51.240;9.964;2023-12-14T14:19:38;9.90;;;7.53;;
54909;SDS011;63189;51.240;9.964;2023-12-14T14:22:03;8.50;;;6.90;;
54909;SDS011;63189;51.240;9.964;2023-12-14T14:24:29;12.63;;;8.25;;
54909;SDS011;63189;51.240;9.964;2023-12-14T14:26:56;12.77;;;8.88;;
54909;SDS011;63189;51.240;9.964;2023-12-14T14:29:22;17.55;;;11.13;;
54909;SDS011;63189;51.240;9.964;2023-12-14T14:31:47;13.57;;;9.50;;
54909;SDS011;63189;51.240;9.964;2023-12-14T14:34:13;11.95;;;7.50;;
54909;SDS011;63189;51.240;9.964;2023-12-14T14:36:38;9.75;;;7.43;;